sensor_id;sensor_type;location;lat;lon;timestamp;temperature;humidity
674;DHT22;319;48.764;9.174;2024-03-17T00:01:53;9.90;99.90
674;DHT22;319;48.764;9.174;2024-03-17T00:04:19;9.70;99.90
674;DHT22;319;48.764;9.174;2024-03-17T00:06:47;9.40;99.90
674;DHT22;319;48.764;9.174;2024-03-17T00:09:14;9.90;99.90
674;DHT22;319;48.764;9.174;2024-03-17T00:11:41;9.80;99.90
674;DHT22;319;48.764;9.174;2024-03-17T00:14:08;9.80;99.90
674;DHT22;319;48.764;9.174;2024-03-17T00:16:34;9.80;99.90
674;DHT22;319;48.764;9.174;2024-03-17T00:19:01;10.40;99.90
674;DHT22;319;48.764;9.174;2024-03-17T00:21:27;9.60;99.90
674;DHT22;319;48.764;9.174;2024-03-17T00:23:56;9.70;99.90
674;DHT22;319;48.764;9.174;2024-03-17T00:26:22;9.70;99.90
674;DHT22;319;48.764;9.174;2024-03-17T00:28:49;9.80;99.90
674;DHT22;319;48.764;9.174;2024-03-17T00:31:16;9.60;99.90
674;DHT22;319;48.764;9.174;2024-03-17T00:33:44;9.90;99.90
674;DHT22;319;48.764;9.174;2024-03-17T00:36:10;9.50;99.90
674;DHT22;319;48.764;9.174;2024-03-17T00:38:37;9.90;99.90
674;DHT22;319;48.764;9.174;2024-03-17T00:41:04;9.60;99.90
674;DHT22;319;48.764;9.174;2024-03-17T00:43:32;9.60;99.90
674;DHT22;319;48.764;9.174;2024-03-17T00:45:57;9.60;99.90
674;DHT22;319;48.764;9.174;2024-03-17T00:48:24;9.80;99.90
674;DHT22;319;48.764;9.174;2024-03-17T00:50:55;9.50;99.90
674;DHT22;319;48.764;9.174;2024-03-17T00:53:22;9.70;99.90
674;DHT22;319;48.764;9.174;2024-03-17T00:55:51;9.60;99.90
674;DHT22;319;48.764;9.174;2024-03-17T00:58:20;9.70;99.90
674;DHT22;319;48.764;9.174;2024-03-17T01:00:47;9.70;99.90
674;DHT22;319;48.764;9.174;2024-03-17T01:03:13;9.60;99.90
674;DHT22;319;48.764;9.174;2024-03-17T01:05:40;9.60;99.90
674;DHT22;319;48.764;9.174;2024-03-17T01:08:08;9.60;99.90
674;DHT22;319;48.764;9.174;2024-03-17T01:10:37;9.50;99.90
674;DHT22;319;48.764;9.174;2024-03-17T01:13:04;9.30;99.90
674;DHT22;319;48.764;9.174;2024-03-17T01:15:34;9.60;99.90
674;DHT22;319;48.764;9.174;2024-03-17T01:18:00;9.30;99.90
674;DHT22;319;48.764;9.174;2024-03-17T01:20:27;9.50;99.90
674;DHT22;319;48.764;9.174;2024-03-17T01:25:20;9.60;99.90
674;DHT22;319;48.764;9.174;2024-03-17T01:27:45;9.50;99.90
674;DHT22;319;48.764;9.174;2024-03-17T01:30:12;9.50;99.90
674;DHT22;319;48.764;9.174;2024-03-17T01:32:40;9.30;99.90
674;DHT22;319;48.764;9.174;2024-03-17T01:35:07;9.30;99.90
674;DHT22;319;48.764;9.174;2024-03-17T01:37:33;9.50;99.90
674;DHT22;319;48.764;9.174;2024-03-17T01:40:00;9.50;99.90
674;DHT22;319;48.764;9.174;2024-03-17T01:42:26;9.30;99.90
674;DHT22;319;48.764;9.174;2024-03-17T01:47:19;9.30;99.90
674;DHT22;319;48.764;9.174;2024-03-17T01:49:49;9.30;99.90
674;DHT22;319;48.764;9.174;2024-03-17T01:52:15;9.30;99.90
674;DHT22;319;48.764;9.174;2024-03-17T01:54:43;9.30;99.90
674;DHT22;319;48.764;9.174;2024-03-17T01:57:09;9.40;99.90
674;DHT22;319;48.764;9.174;2024-03-17T01:59:36;9.50;99.90
674;DHT22;319;48.764;9.174;2024-03-17T02:02:03;9.60;99.90
674;DHT22;319;48.764;9.174;2024-03-17T02:04:37;9.40;99.90
674;DHT22;319;48.764;9.174;2024-03-17T02:07:10;9.90;99.90
674;DHT22;319;48.764;9.174;2024-03-17T02:09:36;9.40;99.90
674;DHT22;319;48.764;9.174;2024-03-17T02:12:03;9.60;99.90
674;DHT22;319;48.764;9.174;2024-03-17T02:14:29;9.70;99.90
674;DHT22;319;48.764;9.174;2024-03-17T02:16:56;9.50;99.90
674;DHT22;319;48.764;9.174;2024-03-17T02:19:21;9.50;99.90
674;DHT22;319;48.764;9.174;2024-03-17T02:21:48;9.30;99.90
674;DHT22;319;48.764;9.174;2024-03-17T02:24:15;9.60;99.90
674;DHT22;319;48.764;9.174;2024-03-17T02:26:42;9.60;99.90
674;DHT22;319;48.764;9.174;2024-03-17T02:29:08;9.30;99.90
674;DHT22;319;48.764;9.174;2024-03-17T02:31:35;9.70;99.90
674;DHT22;319;48.764;9.174;2024-03-17T02:34:02;9.60;99.90
674;DHT22;319;48.764;9.174;2024-03-17T02:36:29;9.70;99.90
674;DHT22;319;48.764;9.174;2024-03-17T02:38:55;9.50;99.90
674;DHT22;319;48.764;9.174;2024-03-17T02:41:44;9.60;99.90
674;DHT22;319;48.764;9.174;2024-03-17T02:44:11;9.60;99.90
674;DHT22;319;48.764;9.174;2024-03-17T02:46:38;9.20;99.90
674;DHT22;319;48.764;9.174;2024-03-17T02:49:05;9.90;99.90
674;DHT22;319;48.764;9.174;2024-03-17T02:51:34;9.60;99.90
674;DHT22;319;48.764;9.174;2024-03-17T02:54:01;9.60;99.90
674;DHT22;319;48.764;9.174;2024-03-17T02:56:28;9.70;99.90
674;DHT22;319;48.764;9.174;2024-03-17T02:58:56;9.80;99.90
674;DHT22;319;48.764;9.174;2024-03-17T03:01:23;9.90;99.90
674;DHT22;319;48.764;9.174;2024-03-17T03:06:17;9.70;99.90
674;DHT22;319;48.764;9.174;2024-03-17T03:08:45;9.70;99.90
674;DHT22;319;48.764;9.174;2024-03-17T03:11:16;9.70;99.90
674;DHT22;319;48.764;9.174;2024-03-17T03:13:43;9.60;99.90
674;DHT22;319;48.764;9.174;2024-03-17T03:16:13;9.60;99.90
674;DHT22;319;48.764;9.174;2024-03-17T03:18:41;9.50;99.90
674;DHT22;319;48.764;9.174;2024-03-17T03:21:10;9.30;99.90
674;DHT22;319;48.764;9.174;2024-03-17T03:23:37;9.40;99.90
674;DHT22;319;48.764;9.174;2024-03-17T03:26:04;9.60;99.90
674;DHT22;319;48.764;9.174;2024-03-17T03:28:36;9.40;99.90
674;DHT22;319;48.764;9.174;2024-03-17T03:31:04;9.40;99.90
674;DHT22;319;48.764;9.174;2024-03-17T03:33:32;9.30;99.90
674;DHT22;319;48.764;9.174;2024-03-17T03:35:59;9.30;99.90
674;DHT22;319;48.764;9.174;2024-03-17T03:38:33;9.30;99.90
674;DHT22;319;48.764;9.174;2024-03-17T03:41:06;9.20;99.90
674;DHT22;319;48.764;9.174;2024-03-17T03:43:33;9.30;99.90
674;DHT22;319;48.764;9.174;2024-03-17T03:46:01;9.20;99.90
674;DHT22;319;48.764;9.174;2024-03-17T03:48:28;9.40;99.90
674;DHT22;319;48.764;9.174;2024-03-17T03:50:56;9.30;99.90
674;DHT22;319;48.764;9.174;2024-03-17T03:53:24;9.10;99.90
674;DHT22;319;48.764;9.174;2024-03-17T03:55:51;9.20;99.90
674;DHT22;319;48.764;9.174;2024-03-17T03:58:18;9.20;99.90
674;DHT22;319;48.764;9.174;2024-03-17T04:03:13;9.10;99.90
674;DHT22;319;48.764;9.174;2024-03-17T04:05:40;8.60;99.90
674;DHT22;319;48.764;9.174;2024-03-17T04:08:08;9.30;99.90
674;DHT22;319;48.764;9.174;2024-03-17T04:10:35;9.00;99.90
674;DHT22;319;48.764;9.174;2024-03-17T04:13:02;9.10;99.90
674;DHT22;319;48.764;9.174;2024-03-17T04:15:29;9.10;99.90
674;DHT22;319;48.764;9.174;2024-03-17T04:20:23;9.20;99.90
674;DHT22;319;48.764;9.174;2024-03-17T04:22:50;9.30;99.90
674;DHT22;319;48.764;9.174;2024-03-17T04:25:19;9.40;99.90
674;DHT22;319;48.764;9.174;2024-03-17T04:27:46;9.40;99.90
674;DHT22;319;48.764;9.174;2024-03-17T04:30:13;9.20;99.90
674;DHT22;319;48.764;9.174;2024-03-17T04:32:40;9.10;99.90
674;DHT22;319;48.764;9.174;2024-03-17T04:35:07;8.70;99.90
674;DHT22;319;48.764;9.174;2024-03-17T04:37:33;9.10;99.90
674;DHT22;319;48.764;9.174;2024-03-17T04:40:06;9.30;99.90
674;DHT22;319;48.764;9.174;2024-03-17T04:42:36;9.20;99.90
674;DHT22;319;48.764;9.174;2024-03-17T04:45:06;9.20;99.90
674;DHT22;319;48.764;9.174;2024-03-17T04:47:35;9.10;99.90
674;DHT22;319;48.764;9.174;2024-03-17T04:50:02;9.30;99.90
674;DHT22;319;48.764;9.174;2024-03-17T04:52:29;9.20;99.90
674;DHT22;319;48.764;9.174;2024-03-17T04:54:59;9.60;99.90
674;DHT22;319;48.764;9.174;2024-03-17T04:57:26;9.10;99.90
674;DHT22;319;48.764;9.174;2024-03-17T04:59:54;9.20;99.90
674;DHT22;319;48.764;9.174;2024-03-17T05:02:21;8.90;99.90
674;DHT22;319;48.764;9.174;2024-03-17T05:04:49;9.10;99.90
674;DHT22;319;48.764;9.174;2024-03-17T05:07:15;8.80;99.90
674;DHT22;319;48.764;9.174;2024-03-17T05:12:13;8.70;99.90
674;DHT22;319;48.764;9.174;2024-03-17T05:14:40;8.90;99.90
674;DHT22;319;48.764;9.174;2024-03-17T05:17:08;8.70;99.90
674;DHT22;319;48.764;9.174;2024-03-17T05:19:35;8.70;99.90
674;DHT22;319;48.764;9.174;2024-03-17T05:22:02;8.90;99.90
674;DHT22;319;48.764;9.174;2024-03-17T05:24:29;8.60;99.90
674;DHT22;319;48.764;9.174;2024-03-17T05:26:56;8.70;99.90
674;DHT22;319;48.764;9.174;2024-03-17T05:29:24;8.80;99.90
674;DHT22;319;48.764;9.174;2024-03-17T05:31:50;8.50;99.90
674;DHT22;319;48.764;9.174;2024-03-17T05:34:19;8.80;99.90
674;DHT22;319;48.764;9.174;2024-03-17T05:36:45;8.80;99.90
674;DHT22;319;48.764;9.174;2024-03-17T05:39:12;8.70;99.90
674;DHT22;319;48.764;9.174;2024-03-17T05:41:39;9.00;99.90
674;DHT22;319;48.764;9.174;2024-03-17T05:44:07;8.90;99.90
674;DHT22;319;48.764;9.174;2024-03-17T05:46:33;8.70;99.90
674;DHT22;319;48.764;9.174;2024-03-17T05:49:00;8.50;99.90
674;DHT22;319;48.764;9.174;2024-03-17T05:51:30;8.80;99.90
674;DHT22;319;48.764;9.174;2024-03-17T05:53:57;8.80;99.90
674;DHT22;319;48.764;9.174;2024-03-17T05:56:24;8.90;99.90
674;DHT22;319;48.764;9.174;2024-03-17T05:58:51;8.80;99.90
674;DHT22;319;48.764;9.174;2024-03-17T06:01:18;9.30;99.90
674;DHT22;319;48.764;9.174;2024-03-17T06:03:46;9.00;99.90
674;DHT22;319;48.764;9.174;2024-03-17T06:06:13;8.90;99.90
674;DHT22;319;48.764;9.174;2024-03-17T06:08:42;9.00;99.90
674;DHT22;319;48.764;9.174;2024-03-17T06:11:08;8.70;99.90
674;DHT22;319;48.764;9.174;2024-03-17T06:13:35;8.80;99.90
674;DHT22;319;48.764;9.174;2024-03-17T06:16:04;9.00;99.90
674;DHT22;319;48.764;9.174;2024-03-17T06:18:31;9.00;99.90
674;DHT22;319;48.764;9.174;2024-03-17T06:23:25;9.20;99.90
674;DHT22;319;48.764;9.174;2024-03-17T06:25:55;8.60;99.90
674;DHT22;319;48.764;9.174;2024-03-17T06:28:22;9.40;99.90
674;DHT22;319;48.764;9.174;2024-03-17T06:30:56;9.30;99.90
674;DHT22;319;48.764;9.174;2024-03-17T06:33:25;9.20;99.90
674;DHT22;319;48.764;9.174;2024-03-17T06:35:53;9.20;99.90
674;DHT22;319;48.764;9.174;2024-03-17T06:38:20;9.20;99.90
674;DHT22;319;48.764;9.174;2024-03-17T06:40:50;9.20;99.90
674;DHT22;319;48.764;9.174;2024-03-17T06:43:19;9.20;99.90
674;DHT22;319;48.764;9.174;2024-03-17T06:45:56;9.30;99.90
674;DHT22;319;48.764;9.174;2024-03-17T06:48:24;9.30;99.90
674;DHT22;319;48.764;9.174;2024-03-17T06:50:51;9.50;99.90
674;DHT22;319;48.764;9.174;2024-03-17T06:53:20;9.60;99.90
674;DHT22;319;48.764;9.174;2024-03-17T06:55:57;9.60;99.90
674;DHT22;319;48.764;9.174;2024-03-17T06:58:26;9.80;99.90
674;DHT22;319;48.764;9.174;2024-03-17T07:00:54;10.00;99.90
674;DHT22;319;48.764;9.174;2024-03-17T07:03:23;10.30;99.90
674;DHT22;319;48.764;9.174;2024-03-17T07:05:54;10.60;99.90
674;DHT22;319;48.764;9.174;2024-03-17T07:08:21;10.90;99.90
674;DHT22;319;48.764;9.174;2024-03-17T07:10:58;10.90;99.90
674;DHT22;319;48.764;9.174;2024-03-17T07:13:28;10.80;99.90
674;DHT22;319;48.764;9.174;2024-03-17T07:15:55;10.90;99.90
674;DHT22;319;48.764;9.174;2024-03-17T07:18:24;11.20;99.90
674;DHT22;319;48.764;9.174;2024-03-17T07:20:51;11.50;99.90
674;DHT22;319;48.764;9.174;2024-03-17T07:23:18;11.70;99.90
674;DHT22;319;48.764;9.174;2024-03-17T07:25:51;11.90;99.90
674;DHT22;319;48.764;9.174;2024-03-17T07:28:19;12.10;99.90
674;DHT22;319;48.764;9.174;2024-03-17T07:30:48;12.20;99.90
674;DHT22;319;48.764;9.174;2024-03-17T07:33:15;12.10;99.90
674;DHT22;319;48.764;9.174;2024-03-17T07:35:50;12.20;99.90
674;DHT22;319;48.764;9.174;2024-03-17T07:38:17;12.60;99.90
674;DHT22;319;48.764;9.174;2024-03-17T07:40:45;13.10;99.90
674;DHT22;319;48.764;9.174;2024-03-17T07:43:12;13.70;99.90
674;DHT22;319;48.764;9.174;2024-03-17T07:45:39;14.40;99.90
674;DHT22;319;48.764;9.174;2024-03-17T07:48:09;15.00;99.20
674;DHT22;319;48.764;9.174;2024-03-17T07:50:36;15.60;98.00
674;DHT22;319;48.764;9.174;2024-03-17T07:53:04;15.90;96.60
674;DHT22;319;48.764;9.174;2024-03-17T07:55:31;16.00;96.00
674;DHT22;319;48.764;9.174;2024-03-17T07:57:58;16.50;95.50
674;DHT22;319;48.764;9.174;2024-03-17T08:00:25;16.80;94.80
674;DHT22;319;48.764;9.174;2024-03-17T08:02:52;16.90;94.20
674;DHT22;319;48.764;9.174;2024-03-17T08:05:21;16.90;93.90
674;DHT22;319;48.764;9.174;2024-03-17T08:07:48;16.80;93.70
674;DHT22;319;48.764;9.174;2024-03-17T08:10:41;16.60;93.90
674;DHT22;319;48.764;9.174;2024-03-17T08:13:10;16.40;94.10
674;DHT22;319;48.764;9.174;2024-03-17T08:15:37;16.40;94.30
674;DHT22;319;48.764;9.174;2024-03-17T08:18:04;16.30;94.30
674;DHT22;319;48.764;9.174;2024-03-17T08:20:37;16.40;94.30
674;DHT22;319;48.764;9.174;2024-03-17T08:23:05;16.60;94.30
674;DHT22;319;48.764;9.174;2024-03-17T08:25:32;16.40;93.90
674;DHT22;319;48.764;9.174;2024-03-17T08:27:59;16.40;94.10
674;DHT22;319;48.764;9.174;2024-03-17T08:30:26;16.20;94.10
674;DHT22;319;48.764;9.174;2024-03-17T08:32:53;16.10;94.40
674;DHT22;319;48.764;9.174;2024-03-17T08:35:20;15.90;94.70
674;DHT22;319;48.764;9.174;2024-03-17T08:37:48;15.90;94.90
674;DHT22;319;48.764;9.174;2024-03-17T08:40:16;15.70;95.20
674;DHT22;319;48.764;9.174;2024-03-17T08:42:43;15.60;95.40
674;DHT22;319;48.764;9.174;2024-03-17T08:45:11;15.60;95.60
674;DHT22;319;48.764;9.174;2024-03-17T08:47:38;15.60;95.70
674;DHT22;319;48.764;9.174;2024-03-17T08:50:06;15.70;95.80
674;DHT22;319;48.764;9.174;2024-03-17T08:52:34;16.00;95.60
674;DHT22;319;48.764;9.174;2024-03-17T08:55:02;16.20;94.80
674;DHT22;319;48.764;9.174;2024-03-17T08:57:38;16.50;94.70
674;DHT22;319;48.764;9.174;2024-03-17T09:00:06;16.80;94.40
674;DHT22;319;48.764;9.174;2024-03-17T09:02:34;16.60;93.90
674;DHT22;319;48.764;9.174;2024-03-17T09:05:01;16.40;94.20
674;DHT22;319;48.764;9.174;2024-03-17T09:07:29;16.20;94.50
674;DHT22;319;48.764;9.174;2024-03-17T09:09:56;16.30;95.30
674;DHT22;319;48.764;9.174;2024-03-17T09:12:25;16.40;94.80
674;DHT22;319;48.764;9.174;2024-03-17T09:14:53;16.60;94.60
674;DHT22;319;48.764;9.174;2024-03-17T09:17:20;16.80;94.10
674;DHT22;319;48.764;9.174;2024-03-17T09:19:47;16.70;93.80
674;DHT22;319;48.764;9.174;2024-03-17T09:22:14;16.70;94.00
674;DHT22;319;48.764;9.174;2024-03-17T09:24:41;16.50;94.00
674;DHT22;319;48.764;9.174;2024-03-17T09:27:08;16.50;94.30
674;DHT22;319;48.764;9.174;2024-03-17T09:29:36;16.50;94.20
674;DHT22;319;48.764;9.174;2024-03-17T09:32:03;16.60;94.20
674;DHT22;319;48.764;9.174;2024-03-17T09:34:30;16.70;93.80
674;DHT22;319;48.764;9.174;2024-03-17T09:36:57;16.80;93.80
674;DHT22;319;48.764;9.174;2024-03-17T09:39:24;17.00;93.60
674;DHT22;319;48.764;9.174;2024-03-17T09:41:51;17.00;93.30
674;DHT22;319;48.764;9.174;2024-03-17T09:44:18;17.00;93.10
674;DHT22;319;48.764;9.174;2024-03-17T09:46:47;17.10;93.20
674;DHT22;319;48.764;9.174;2024-03-17T09:49:15;17.10;92.80
674;DHT22;319;48.764;9.174;2024-03-17T09:51:42;17.20;92.70
674;DHT22;319;48.764;9.174;2024-03-17T09:54:18;17.00;92.60
674;DHT22;319;48.764;9.174;2024-03-17T09:56:45;16.90;92.60
674;DHT22;319;48.764;9.174;2024-03-17T09:59:12;17.00;92.50
674;DHT22;319;48.764;9.174;2024-03-17T10:01:39;17.10;92.20
674;DHT22;319;48.764;9.174;2024-03-17T10:04:09;17.10;91.90
674;DHT22;319;48.764;9.174;2024-03-17T10:06:45;17.20;91.80
674;DHT22;319;48.764;9.174;2024-03-17T10:09:16;17.30;91.40
674;DHT22;319;48.764;9.174;2024-03-17T10:11:47;17.30;90.80
674;DHT22;319;48.764;9.174;2024-03-17T10:14:17;17.30;90.50
674;DHT22;319;48.764;9.174;2024-03-17T10:16:44;17.20;90.00
674;DHT22;319;48.764;9.174;2024-03-17T10:19:13;17.10;89.50
674;DHT22;319;48.764;9.174;2024-03-17T10:21:41;16.90;90.00
674;DHT22;319;48.764;9.174;2024-03-17T10:24:09;17.00;90.20
674;DHT22;319;48.764;9.174;2024-03-17T10:26:46;17.00;89.60
674;DHT22;319;48.764;9.174;2024-03-17T10:29:20;17.00;88.90
674;DHT22;319;48.764;9.174;2024-03-17T10:31:48;17.20;88.60
674;DHT22;319;48.764;9.174;2024-03-17T10:34:20;17.30;86.60
674;DHT22;319;48.764;9.174;2024-03-17T10:36:50;16.90;85.40
674;DHT22;319;48.764;9.174;2024-03-17T10:39:24;17.20;85.50
674;DHT22;319;48.764;9.174;2024-03-17T10:42:00;17.40;85.20
674;DHT22;319;48.764;9.174;2024-03-17T10:44:28;17.50;84.30
674;DHT22;319;48.764;9.174;2024-03-17T10:46:56;17.70;84.00
674;DHT22;319;48.764;9.174;2024-03-17T10:49:29;17.50;83.00
674;DHT22;319;48.764;9.174;2024-03-17T10:52:07;17.40;83.10
674;DHT22;319;48.764;9.174;2024-03-17T10:54:35;17.60;82.70
674;DHT22;319;48.764;9.174;2024-03-17T10:57:08;17.30;82.00
674;DHT22;319;48.764;9.174;2024-03-17T10:59:41;17.60;82.00
674;DHT22;319;48.764;9.174;2024-03-17T11:02:20;17.60;81.10
674;DHT22;319;48.764;9.174;2024-03-17T11:04:51;17.30;81.10
674;DHT22;319;48.764;9.174;2024-03-17T11:07:19;17.20;81.30
674;DHT22;319;48.764;9.174;2024-03-17T11:09:48;17.50;80.70
674;DHT22;319;48.764;9.174;2024-03-17T11:12:43;17.70;81.20
674;DHT22;319;48.764;9.174;2024-03-17T11:18:34;17.80;82.40
674;DHT22;319;48.764;9.174;2024-03-17T11:23:56;17.50;81.70
674;DHT22;319;48.764;9.174;2024-03-17T11:26:28;17.40;81.70
674;DHT22;319;48.764;9.174;2024-03-17T11:28:56;17.50;81.30
674;DHT22;319;48.764;9.174;2024-03-17T11:31:38;17.60;81.90
674;DHT22;319;48.764;9.174;2024-03-17T11:34:29;17.60;80.90
674;DHT22;319;48.764;9.174;2024-03-17T11:36:59;17.60;80.80
674;DHT22;319;48.764;9.174;2024-03-17T11:39:49;17.50;81.20
674;DHT22;319;48.764;9.174;2024-03-17T11:42:17;17.70;82.00
674;DHT22;319;48.764;9.174;2024-03-17T11:44:56;17.90;78.80
674;DHT22;319;48.764;9.174;2024-03-17T11:47:23;18.00;78.20
674;DHT22;319;48.764;9.174;2024-03-17T11:50:02;18.20;78.00
674;DHT22;319;48.764;9.174;2024-03-17T11:52:30;18.30;77.10
674;DHT22;319;48.764;9.174;2024-03-17T11:54:56;18.40;76.90
674;DHT22;319;48.764;9.174;2024-03-17T11:57:24;18.30;77.70
674;DHT22;319;48.764;9.174;2024-03-17T11:59:51;18.10;79.70
674;DHT22;319;48.764;9.174;2024-03-17T12:02:20;18.10;80.30
674;DHT22;319;48.764;9.174;2024-03-17T12:04:48;18.10;80.60
674;DHT22;319;48.764;9.174;2024-03-17T12:07:16;18.00;81.00
674;DHT22;319;48.764;9.174;2024-03-17T12:09:44;18.10;81.90
674;DHT22;319;48.764;9.174;2024-03-17T12:12:16;18.00;83.20
674;DHT22;319;48.764;9.174;2024-03-17T12:14:43;18.00;83.70
674;DHT22;319;48.764;9.174;2024-03-17T12:17:11;17.90;83.90
674;DHT22;319;48.764;9.174;2024-03-17T12:19:39;17.80;83.40
674;DHT22;319;48.764;9.174;2024-03-17T12:22:08;17.50;84.50
674;DHT22;319;48.764;9.174;2024-03-17T12:24:36;17.60;84.40
674;DHT22;319;48.764;9.174;2024-03-17T12:27:08;17.40;84.20
674;DHT22;319;48.764;9.174;2024-03-17T12:29:42;17.30;85.30
674;DHT22;319;48.764;9.174;2024-03-17T12:32:13;17.30;84.70
674;DHT22;319;48.764;9.174;2024-03-17T12:34:40;17.40;84.70
674;DHT22;319;48.764;9.174;2024-03-17T12:37:08;17.00;85.20
674;DHT22;319;48.764;9.174;2024-03-17T12:39:35;16.80;86.60
674;DHT22;319;48.764;9.174;2024-03-17T12:42:08;16.90;86.80
674;DHT22;319;48.764;9.174;2024-03-17T12:44:38;16.80;84.90
674;DHT22;319;48.764;9.174;2024-03-17T12:47:10;17.00;85.80
674;DHT22;319;48.764;9.174;2024-03-17T12:49:45;17.10;85.30
674;DHT22;319;48.764;9.174;2024-03-17T12:52:17;17.00;85.10
674;DHT22;319;48.764;9.174;2024-03-17T12:54:44;17.20;85.40
674;DHT22;319;48.764;9.174;2024-03-17T12:57:20;17.30;85.50
674;DHT22;319;48.764;9.174;2024-03-17T13:00:17;17.50;96.10
674;DHT22;319;48.764;9.174;2024-03-17T13:02:59;17.50;85.00
674;DHT22;319;48.764;9.174;2024-03-17T13:05:26;17.50;84.40
674;DHT22;319;48.764;9.174;2024-03-17T13:07:53;17.60;84.10
674;DHT22;319;48.764;9.174;2024-03-17T13:10:23;17.40;84.20
674;DHT22;319;48.764;9.174;2024-03-17T13:13:00;17.30;84.90
674;DHT22;319;48.764;9.174;2024-03-17T13:15:28;17.50;94.70
674;DHT22;319;48.764;9.174;2024-03-17T13:17:56;17.30;85.10
674;DHT22;319;48.764;9.174;2024-03-17T13:20:24;17.40;84.60
674;DHT22;319;48.764;9.174;2024-03-17T13:22:51;17.60;84.40
674;DHT22;319;48.764;9.174;2024-03-17T13:25:23;17.80;83.50
674;DHT22;319;48.764;9.174;2024-03-17T13:27:53;17.90;82.50
674;DHT22;319;48.764;9.174;2024-03-17T13:30:25;18.20;82.50
674;DHT22;319;48.764;9.174;2024-03-17T13:32:54;18.30;81.70
674;DHT22;319;48.764;9.174;2024-03-17T13:35:24;18.30;81.80
674;DHT22;319;48.764;9.174;2024-03-17T13:37:52;18.30;80.90
674;DHT22;319;48.764;9.174;2024-03-17T13:40:21;18.20;81.30
674;DHT22;319;48.764;9.174;2024-03-17T13:42:49;18.20;81.00
674;DHT22;319;48.764;9.174;2024-03-17T13:45:17;18.10;80.60
674;DHT22;319;48.764;9.174;2024-03-17T13:47:51;18.00;80.80
674;DHT22;319;48.764;9.174;2024-03-17T13:50:19;18.00;80.90
674;DHT22;319;48.764;9.174;2024-03-17T13:52:46;18.10;81.00
674;DHT22;319;48.764;9.174;2024-03-17T13:55:14;18.10;81.00
674;DHT22;319;48.764;9.174;2024-03-17T13:57:44;18.20;80.50
674;DHT22;319;48.764;9.174;2024-03-17T14:00:12;18.10;94.00
674;DHT22;319;48.764;9.174;2024-03-17T14:02:44;18.00;79.20
674;DHT22;319;48.764;9.174;2024-03-17T14:05:16;18.00;79.90
674;DHT22;319;48.764;9.174;2024-03-17T14:07:44;17.70;80.20
674;DHT22;319;48.764;9.174;2024-03-17T14:10:12;17.50;94.00
674;DHT22;319;48.764;9.174;2024-03-17T14:12:39;17.40;92.70
674;DHT22;319;48.764;9.174;2024-03-17T14:15:08;17.50;80.50
674;DHT22;319;48.764;9.174;2024-03-17T14:17:36;17.40;80.50
674;DHT22;319;48.764;9.174;2024-03-17T14:20:03;17.30;92.90
674;DHT22;319;48.764;9.174;2024-03-17T14:22:33;17.60;81.00
674;DHT22;319;48.764;9.174;2024-03-17T14:24:59;17.60;80.60
674;DHT22;319;48.764;9.174;2024-03-17T14:27:26;17.70;80.60
674;DHT22;319;48.764;9.174;2024-03-17T14:29:53;18.20;83.40
674;DHT22;319;48.764;9.174;2024-03-17T14:32:21;17.90;80.10
674;DHT22;319;48.764;9.174;2024-03-17T14:34:48;18.10;80.40
674;DHT22;319;48.764;9.174;2024-03-17T14:37:15;18.30;80.00
674;DHT22;319;48.764;9.174;2024-03-17T14:39:43;18.30;79.30
674;DHT22;319;48.764;9.174;2024-03-17T14:42:10;18.30;79.30
674;DHT22;319;48.764;9.174;2024-03-17T14:44:37;18.00;79.20
674;DHT22;319;48.764;9.174;2024-03-17T14:47:04;17.90;80.10
674;DHT22;319;48.764;9.174;2024-03-17T14:49:33;18.00;80.30
674;DHT22;319;48.764;9.174;2024-03-17T14:52:00;18.00;80.00
674;DHT22;319;48.764;9.174;2024-03-17T14:54:27;18.10;80.20
674;DHT22;319;48.764;9.174;2024-03-17T14:56:55;18.00;80.00
674;DHT22;319;48.764;9.174;2024-03-17T14:59:22;18.00;79.60
674;DHT22;319;48.764;9.174;2024-03-17T15:01:49;17.80;80.20
674;DHT22;319;48.764;9.174;2024-03-17T15:04:16;17.70;80.80
674;DHT22;319;48.764;9.174;2024-03-17T15:06:44;17.70;81.30
674;DHT22;319;48.764;9.174;2024-03-17T15:09:11;17.70;81.00
674;DHT22;319;48.764;9.174;2024-03-17T15:11:38;17.70;80.80
674;DHT22;319;48.764;9.174;2024-03-17T15:14:07;17.50;81.00
674;DHT22;319;48.764;9.174;2024-03-17T15:16:39;17.40;81.00
674;DHT22;319;48.764;9.174;2024-03-17T15:19:07;17.20;95.10
674;DHT22;319;48.764;9.174;2024-03-17T15:21:34;17.20;81.90
674;DHT22;319;48.764;9.174;2024-03-17T15:24:01;17.20;83.00
674;DHT22;319;48.764;9.174;2024-03-17T15:26:28;17.10;82.80
674;DHT22;319;48.764;9.174;2024-03-17T15:28:56;16.90;83.50
674;DHT22;319;48.764;9.174;2024-03-17T15:31:24;16.90;83.40
674;DHT22;319;48.764;9.174;2024-03-17T15:36:19;16.70;83.30
674;DHT22;319;48.764;9.174;2024-03-17T15:38:46;16.60;84.70
674;DHT22;319;48.764;9.174;2024-03-17T15:41:14;16.60;85.00
674;DHT22;319;48.764;9.174;2024-03-17T15:43:41;16.50;85.30
674;DHT22;319;48.764;9.174;2024-03-17T15:46:09;16.50;85.60
674;DHT22;319;48.764;9.174;2024-03-17T15:48:50;16.50;90.60
674;DHT22;319;48.764;9.174;2024-03-17T15:51:18;16.30;85.80
674;DHT22;319;48.764;9.174;2024-03-17T15:53:46;16.30;86.00
674;DHT22;319;48.764;9.174;2024-03-17T15:56:13;16.50;97.30
674;DHT22;319;48.764;9.174;2024-03-17T15:58:43;16.30;86.80
674;DHT22;319;48.764;9.174;2024-03-17T16:03:39;16.30;86.50
674;DHT22;319;48.764;9.174;2024-03-17T16:06:11;16.30;88.10
674;DHT22;319;48.764;9.174;2024-03-17T16:08:43;16.20;93.90
674;DHT22;319;48.764;9.174;2024-03-17T16:11:12;16.30;87.70
674;DHT22;319;48.764;9.174;2024-03-17T16:13:40;16.30;87.50
674;DHT22;319;48.764;9.174;2024-03-17T16:16:08;16.20;88.50
674;DHT22;319;48.764;9.174;2024-03-17T16:18:38;16.30;87.50
674;DHT22;319;48.764;9.174;2024-03-17T16:21:08;16.10;87.20
674;DHT22;319;48.764;9.174;2024-03-17T16:23:38;16.10;87.80
674;DHT22;319;48.764;9.174;2024-03-17T16:26:06;16.00;88.50
674;DHT22;319;48.764;9.174;2024-03-17T16:28:34;16.00;88.70
674;DHT22;319;48.764;9.174;2024-03-17T16:31:02;15.90;88.70
674;DHT22;319;48.764;9.174;2024-03-17T16:33:31;15.90;88.70
674;DHT22;319;48.764;9.174;2024-03-17T16:35:59;15.80;89.00
674;DHT22;319;48.764;9.174;2024-03-17T16:38:27;15.80;89.00
674;DHT22;319;48.764;9.174;2024-03-17T16:40:56;15.70;89.20
674;DHT22;319;48.764;9.174;2024-03-17T16:43:33;15.70;89.50
674;DHT22;319;48.764;9.174;2024-03-17T16:46:06;15.70;89.70
674;DHT22;319;48.764;9.174;2024-03-17T16:48:39;15.70;89.60
674;DHT22;319;48.764;9.174;2024-03-17T16:51:06;15.70;90.00
674;DHT22;319;48.764;9.174;2024-03-17T16:53:34;15.70;90.10
674;DHT22;319;48.764;9.174;2024-03-17T16:56:04;15.60;92.00
674;DHT22;319;48.764;9.174;2024-03-17T16:58:31;15.70;90.20
674;DHT22;319;48.764;9.174;2024-03-17T17:00:59;15.60;90.00
674;DHT22;319;48.764;9.174;2024-03-17T17:03:25;15.60;90.10
674;DHT22;319;48.764;9.174;2024-03-17T17:05:52;15.60;90.00
674;DHT22;319;48.764;9.174;2024-03-17T17:08:19;15.60;90.10
674;DHT22;319;48.764;9.174;2024-03-17T17:10:47;15.60;90.20
674;DHT22;319;48.764;9.174;2024-03-17T17:13:14;15.60;90.20
674;DHT22;319;48.764;9.174;2024-03-17T17:15:46;15.50;90.30
674;DHT22;319;48.764;9.174;2024-03-17T17:18:50;15.60;90.50
674;DHT22;319;48.764;9.174;2024-03-17T17:21:18;15.70;90.60